TAF

Looking Back 6 Hours

Worst Weather Category
LocationTimeVisiblityCeilingWeatherWind SpeedWind Gust
KPBF172337Z6NONENONE SSE 7NA NA

  • TAFPBF TAF KPBF 172337Z 1800/1824 VRB02KT P6SM SKC
          FM181430 15007KT P6SM SKC =